Belle River, Canada
Current Conditions -  °F | °C
As of 11:00 AM on Monday 24 Nov 2014 (Local Time) from CYQG Reporting Station
Light Rain Light Rain  
Wind Chill: 54°   Ceiling: 7400
Heat Index: 54°   Visibility: 10mi
Dew Point: 50°   Wind: 26mph
Humidity: 88%   Direction: 210°SSW
Pressure: 29.15"   Gusts: 35mph
Location:  42.3°N, 82.72°W
Report Text: CYQG 241600Z 21023G30KT 10SM -RA FEW024 BKN074 BKN100 12/10 A2915 RMK SC2AC3AS2 SLP870 DENSITY ALT 1200FT
Loading
Personal Weather Stations






























Interactive Weather Map New forecast layout! Learn more

10-Day Weather Forecast

Advertisements
Track Severe Weather on mobile